createdAt,value
2022-09-14T00:01:25.289Z,98490.44
2022-09-14T00:04:01.152Z,98492.91
2022-09-14T00:06:30.610Z,98483.78
2022-09-14T00:09:01.042Z,98493.25
2022-09-14T00:11:31.191Z,98481.41
2022-09-14T00:14:01.897Z,98485.22
2022-09-14T00:16:36.617Z,98486.84
2022-09-14T00:19:17.999Z,98484.75
2022-09-14T00:21:45.394Z,98485.31
2022-09-14T00:24:12.643Z,98484.81
2022-09-14T00:26:40.017Z,98484.25
2022-09-14T00:29:07.259Z,98490.25
2022-09-14T00:31:38.425Z,98481.63
2022-09-14T00:34:09.102Z,98487.59
2022-09-14T00:36:41.994Z,98481.16
2022-09-14T00:39:09.910Z,98477.94
2022-09-14T00:41:42.802Z,98474.72
2022-09-14T00:44:12.973Z,98477.97
2022-09-14T00:46:47.540Z,98472.63
2022-09-14T00:49:22.342Z,98471.59
2022-09-14T00:52:20.053Z,98478.38
2022-09-14T00:54:59.433Z,98480.03
2022-09-14T00:57:34.543Z,98481.66
2022-09-14T01:00:05.379Z,98485.47
2022-09-14T01:02:33.717Z,98477.13
2022-09-14T01:05:01.478Z,98481.50
2022-09-14T01:08:10.212Z,98475.03
2022-09-14T01:11:20.563Z,98474.81
2022-09-14T01:14:06.379Z,98475.06
2022-09-14T01:16:55.273Z,98475.13
2022-09-14T01:19:55.495Z,98478.38
2022-09-14T01:22:58.791Z,98474.63
2022-09-14T01:26:14.770Z,98472.78
2022-09-14T01:29:07.148Z,98472.56
2022-09-14T01:32:01.151Z,98471.47
2022-09-14T01:34:35.322Z,98473.66
2022-09-14T01:37:31.341Z,98469.91
2022-09-14T01:40:08.049Z,98464.00
2022-09-14T01:42:38.154Z,98462.94
2022-09-14T01:45:12.650Z,98461.34
2022-09-14T01:47:50.343Z,98454.88
2022-09-14T01:50:27.419Z,98451.69
2022-09-14T01:53:16.845Z,98437.16
2022-09-14T01:56:32.389Z,98445.00
2022-09-14T01:59:07.206Z,98440.97
2022-09-14T02:02:03.208Z,98432.91
2022-09-14T02:04:54.377Z,98441.03
2022-09-14T02:07:22.015Z,98440.78
2022-09-14T02:09:52.790Z,98432.97
2022-09-14T02:12:22.629Z,98442.69
2022-09-14T02:14:53.610Z,98432.47
2022-09-14T02:17:22.186Z,98434.66
2022-09-14T02:19:59.715Z,98430.63
2022-09-14T02:22:29.892Z,98430.38
2022-09-14T02:24:58.067Z,98428.22
2022-09-14T02:27:26.226Z,98434.44
2022-09-14T02:29:54.166Z,98435.50
2022-09-14T02:32:46.232Z,98427.16
2022-09-14T02:35:26.138Z,98431.19
2022-09-14T02:38:20.413Z,98429.88
2022-09-14T02:40:58.897Z,98421.28
2022-09-14T02:43:52.926Z,98424.25
2022-09-14T02:46:52.440Z,98422.38
2022-09-14T02:49:43.538Z,98423.22
2022-09-14T02:52:29.290Z,98421.88
2022-09-14T02:55:10.860Z,98418.63
2022-09-14T02:58:05.301Z,98419.22
2022-09-14T03:00:37.022Z,98412.22
2022-09-14T03:03:06.883Z,98416.00
2022-09-14T03:05:34.587Z,98409.53
2022-09-14T03:08:03.039Z,98412.50
2022-09-14T03:10:32.128Z,98408.75
2022-09-14T03:13:00.265Z,98402.03
2022-09-14T03:15:29.409Z,98404.19
2022-09-14T03:17:56.790Z,98403.13
2022-09-14T03:20:29.120Z,98404.50
2022-09-14T03:22:58.473Z,98408.00
2022-09-14T03:25:26.623Z,98415.00
2022-09-14T03:27:57.559Z,98410.72
2022-09-14T03:30:25.811Z,98412.88
2022-09-14T03:32:53.408Z,98399.69
2022-09-14T03:35:20.905Z,98399.97
2022-09-14T03:37:48.075Z,98406.41
2022-09-14T03:40:21.688Z,98408.56
2022-09-14T03:42:51.854Z,98405.34
2022-09-14T03:45:21.261Z,98404.31
2022-09-14T03:47:49.548Z,98406.44
2022-09-14T03:50:18.772Z,98408.59
2022-09-14T03:52:45.986Z,98409.13
2022-09-14T03:55:13.361Z,98397.31
2022-09-14T03:57:40.365Z,98401.88
2022-09-14T04:00:09.955Z,98404.31
2022-09-14T04:02:40.966Z,98409.16
2022-09-14T04:05:09.484Z,98404.34
2022-09-14T04:07:36.774Z,98405.16
2022-09-14T04:10:07.172Z,98404.06
2022-09-14T04:12:36.898Z,98407.03
2022-09-14T04:15:08.548Z,98406.50
2022-09-14T04:17:36.019Z,98407.56
2022-09-14T04:20:05.948Z,98407.56
2022-09-14T04:22:34.337Z,98402.97
2022-09-14T04:25:01.878Z,98407.53
2022-09-14T04:27:30.589Z,98403.25
2022-09-14T04:29:57.705Z,98394.63
2022-09-14T04:32:25.263Z,98392.22
2022-09-14T04:34:52.450Z,98396.78
2022-09-14T04:37:19.683Z,98395.97
2022-09-14T04:39:46.968Z,98389.81
2022-09-14T04:42:14.268Z,98398.13
2022-09-14T04:44:42.091Z,98393.84
2022-09-14T04:47:09.270Z,98401.09
2022-09-14T04:49:36.341Z,98403.25
2022-09-14T04:52:03.569Z,98407.81
2022-09-14T04:54:30.796Z,98410.75
2022-09-14T04:56:57.828Z,98409.16
2022-09-14T04:59:24.975Z,98409.16
2022-09-14T05:01:52.339Z,98407.00
2022-09-14T05:04:20.711Z,98408.63
2022-09-14T05:06:47.982Z,98400.56
2022-09-14T05:09:18.438Z,98395.72
2022-09-14T05:11:45.977Z,98393.03
2022-09-14T05:14:14.476Z,98396.25
2022-09-14T05:16:44.259Z,98397.88
2022-09-14T05:19:17.519Z,98403.78
2022-09-14T05:21:46.184Z,98401.91
2022-09-14T05:24:17.887Z,98405.38
2022-09-14T05:26:46.314Z,98408.63
2022-09-14T05:29:16.133Z,98405.66
2022-09-14T05:31:43.838Z,98403.53
2022-09-14T05:34:13.299Z,98411.31
2022-09-14T05:36:41.114Z,98411.31
2022-09-14T05:39:09.675Z,98397.88
2022-09-14T05:41:37.682Z,98403.25
2022-09-14T05:44:05.690Z,98405.13
2022-09-14T05:46:34.192Z,98402.69
2022-09-14T05:49:01.641Z,98400.53
2022-09-14T05:51:29.479Z,98392.47
2022-09-14T05:53:58.884Z,98395.13
2022-09-14T05:56:29.401Z,98397.81
2022-09-14T05:58:56.532Z,98396.72
2022-09-14T06:01:28.365Z,98392.13
2022-09-14T06:04:00.349Z,98386.72
2022-09-14T06:06:30.164Z,98387.78
2022-09-14T06:08:57.956Z,98389.09
2022-09-14T06:11:32.969Z,98382.53
2022-09-14T06:14:00.799Z,98386.25
2022-09-14T06:16:29.361Z,98393.47
2022-09-14T06:18:59.345Z,98392.09
2022-09-14T06:21:35.303Z,98385.84
2022-09-14T06:24:04.036Z,98385.03
2022-09-14T06:26:31.324Z,98389.81
2022-09-14T06:28:58.443Z,98392.72
2022-09-14T06:31:25.858Z,98383.25
2022-09-14T06:33:53.572Z,98390.16
2022-09-14T06:36:27.459Z,98403.25
2022-09-14T06:38:55.927Z,98397.78
2022-09-14T06:41:29.060Z,98402.53
2022-09-14T06:44:03.332Z,98404.31
2022-09-14T06:46:34.217Z,98401.56
2022-09-14T06:49:09.457Z,98402.28
2022-09-14T06:51:46.454Z,98412.97
2022-09-14T06:54:16.392Z,98412.56
2022-09-14T06:56:46.139Z,98414.34
2022-09-14T06:59:16.305Z,98412.31
2022-09-14T07:01:45.729Z,98412.72
2022-09-14T07:04:14.304Z,98421.19
2022-09-14T07:06:48.315Z,98410.72
2022-09-14T07:09:19.238Z,98420.84
2022-09-14T07:11:46.347Z,98409.28
2022-09-14T07:14:13.830Z,98413.72
2022-09-14T07:16:41.714Z,98411.19
2022-09-14T07:19:13.601Z,98403.41
2022-09-14T07:21:42.117Z,98400.25
2022-09-14T07:24:12.817Z,98405.50
2022-09-14T07:26:42.512Z,98401.72
2022-09-14T07:29:15.393Z,98397.97
2022-09-14T07:31:52.351Z,98395.31
2022-09-14T07:34:20.823Z,98396.78
2022-09-14T07:36:48.250Z,98395.03
2022-09-14T07:39:17.817Z,98395.91
2022-09-14T07:41:45.856Z,98403.84
2022-09-14T07:44:16.695Z,98391.78
2022-09-14T07:46:46.525Z,98392.19
2022-09-14T07:49:15.527Z,98395.31
2022-09-14T07:51:43.319Z,98392.19
2022-09-14T07:54:13.414Z,98391.75
2022-09-14T07:56:40.871Z,98390.88
2022-09-14T07:59:34.455Z,98399.22
2022-09-14T08:01:58.192Z,98397.97
2022-09-14T08:04:25.958Z,98395.97
2022-09-14T08:06:53.296Z,98399.38
2022-09-14T08:09:20.330Z,98395.94
2022-09-14T08:11:47.603Z,98387.06
2022-09-14T08:14:15.529Z,98388.44
2022-09-14T08:16:42.945Z,98377.34
2022-09-14T08:19:17.106Z,98383.50
2022-09-14T08:21:47.525Z,98385.06
2022-09-14T08:24:20.038Z,98387.41
2022-09-14T08:26:48.852Z,98379.97
2022-09-14T08:29:18.910Z,98382.59
2022-09-14T08:31:51.546Z,98375.63
2022-09-14T08:34:19.412Z,98377.13
2022-09-14T08:36:47.571Z,98379.25
2022-09-14T08:46:30.454Z,98378.06
2022-09-14T08:48:59.011Z,98375.50
2022-09-14T08:51:27.523Z,98372.47
2022-09-14T08:59:27.801Z,98368.81
2022-09-14T09:02:43.153Z,98380.50
2022-09-14T09:05:39.712Z,98367.78
2022-09-14T09:08:34.116Z,98367.75
2022-09-14T09:11:05.673Z,98368.38
2022-09-14T09:13:39.092Z,98371.34
2022-09-14T09:16:11.609Z,98363.44
2022-09-14T09:18:46.862Z,98366.72
2022-09-14T09:21:22.781Z,98358.44
2022-09-14T09:23:50.046Z,98361.09
2022-09-14T09:26:27.674Z,98355.03
2022-09-14T09:29:01.740Z,98346.78
2022-09-14T09:31:44.343Z,98344.84
2022-09-14T09:34:31.208Z,98350.84
2022-09-14T09:37:20.544Z,98343.56
2022-09-14T09:39:49.088Z,98336.31
2022-09-14T09:42:26.254Z,98339.50
2022-09-14T09:45:06.903Z,98338.66
2022-09-14T09:47:35.785Z,98338.66
2022-09-14T09:50:21.569Z,98340.56
2022-09-14T09:53:02.068Z,98335.91
2022-09-14T09:55:40.125Z,98333.63
2022-09-14T09:58:31.331Z,98346.16
2022-09-14T10:01:26.617Z,98339.31
2022-09-14T10:04:03.728Z,98332.03
2022-09-14T10:06:31.606Z,98326.53
2022-09-14T10:08:59.494Z,98324.94
2022-09-14T10:11:38.269Z,98325.41
2022-09-14T10:14:21.282Z,98324.59
2022-09-14T10:16:48.562Z,98332.47
2022-09-14T10:19:25.906Z,98331.31
2022-09-14T10:22:27.298Z,98319.69
2022-09-14T10:24:58.443Z,98318.38
2022-09-14T10:27:48.991Z,98320.41
2022-09-14T10:30:23.587Z,98315.75
2022-09-14T10:33:05.956Z,98316.75
2022-09-14T10:35:56.428Z,98323.59
2022-09-14T10:38:24.646Z,98325.19
2022-09-14T10:41:32.614Z,98324.16
2022-09-14T10:44:19.590Z,98321.56
2022-09-14T10:47:21.558Z,98319.16
2022-09-14T10:50:52.785Z,98313.38
2022-09-14T10:53:52.737Z,98319.97
2022-09-14T10:56:34.694Z,98325.44
2022-09-14T10:59:27.873Z,98317.69
2022-09-14T11:02:55.093Z,98316.78
2022-09-14T11:05:27.561Z,98315.53
2022-09-14T11:08:16.686Z,98321.31
2022-09-14T11:10:57.804Z,98315.41
2022-09-14T11:13:49.817Z,98311.75
2022-09-14T11:17:00.924Z,98319.50
2022-09-14T11:19:59.051Z,98316.31
2022-09-14T11:22:46.690Z,98313.31
2022-09-14T11:25:22.208Z,98312.63
2022-09-14T11:27:58.005Z,98304.88
2022-09-14T11:30:42.238Z,98312.75
2022-09-14T11:33:43.964Z,98322.34
2022-09-14T11:36:21.217Z,98312.66
2022-09-14T11:39:11.809Z,98304.56
2022-09-14T11:41:56.458Z,98308.03
2022-09-14T11:44:36.203Z,98302.19
2022-09-14T11:47:18.833Z,98301.50
2022-09-14T11:50:21.157Z,98311.00
2022-09-14T11:53:11.508Z,98316.84
2022-09-14T11:55:48.654Z,98307.31
2022-09-14T11:58:31.134Z,98312.47
2022-09-14T12:01:31.140Z,98318.81
2022-09-14T12:04:01.113Z,98319.28
2022-09-14T12:06:31.385Z,98317.09
2022-09-14T12:09:24.422Z,98321.47
2022-09-14T12:11:56.664Z,98328.25
2022-09-14T12:14:30.258Z,98341.28
2022-09-14T12:17:40.944Z,98342.56
2022-09-14T12:20:34.345Z,98345.47
2022-09-14T12:23:29.391Z,98348.38
2022-09-14T12:26:29.667Z,98349.38
2022-09-14T12:29:05.518Z,98349.56
2022-09-14T12:32:03.352Z,98351.34
2022-09-14T12:34:33.647Z,98354.72
2022-09-14T12:37:25.086Z,98345.94
2022-09-14T12:40:23.871Z,98347.25
2022-09-14T12:42:51.153Z,98343.75
2022-09-14T12:45:59.880Z,98342.31
2022-09-14T12:48:49.208Z,98342.47
2022-09-14T12:51:31.261Z,98345.25
2022-09-14T12:54:22.794Z,98341.41
2022-09-14T12:57:03.427Z,98339.97
2022-09-14T13:00:04.624Z,98338.56
2022-09-14T13:03:14.717Z,98338.41
2022-09-14T13:05:45.932Z,98337.13
2022-09-14T13:08:22.931Z,98333.13
2022-09-14T13:10:52.261Z,98332.19
2022-09-14T13:13:30.838Z,98332.97
2022-09-14T13:16:06.050Z,98322.41
2022-09-14T13:18:37.192Z,98320.97
2022-09-14T13:21:24.214Z,98313.13
2022-09-14T13:23:53.002Z,98328.19
2022-09-14T13:26:28.181Z,98313.59
2022-09-14T13:28:58.677Z,98324.00
2022-09-14T13:31:34.870Z,98323.06
2022-09-14T13:34:05.323Z,98320.31
2022-09-14T13:36:40.066Z,98313.28
2022-09-14T13:39:37.064Z,98307.69
2022-09-14T13:42:06.563Z,98302.88
2022-09-14T13:44:47.885Z,98299.69
2022-09-14T13:47:21.529Z,98286.72
2022-09-14T13:49:51.985Z,98290.88
2022-09-14T13:52:34.341Z,98283.69
2022-09-14T13:55:42.799Z,98282.75
2022-09-14T13:58:10.017Z,98270.94
2022-09-14T14:01:03.550Z,98260.69
2022-09-14T14:03:49.288Z,98260.69
2022-09-14T14:06:34.763Z,98253.66
2022-09-14T14:09:10.171Z,98252.06
2022-09-14T14:11:48.087Z,98253.66
2022-09-14T14:14:31.142Z,98255.91
2022-09-14T14:17:20.267Z,98247.25
2022-09-14T14:19:49.515Z,98249.50
2022-09-14T14:22:24.802Z,98260.38
2022-09-14T14:27:46.126Z,98249.03
2022-09-14T14:30:21.681Z,98257.19
2022-09-14T14:32:51.942Z,98259.41
2022-09-14T14:35:24.000Z,98258.94
2022-09-14T14:37:51.927Z,98256.22
2022-09-14T14:40:20.092Z,98243.25
2022-09-14T14:42:49.138Z,98228.09
2022-09-14T14:45:26.172Z,98228.09
2022-09-14T14:47:55.897Z,98223.75
2022-09-14T14:50:32.454Z,98219.47
2022-09-14T14:53:04.035Z,98218.66
2022-09-14T14:55:32.206Z,98221.69
2022-09-14T14:58:04.183Z,98228.56
2022-09-14T15:00:34.961Z,98228.88
2022-09-14T15:03:02.864Z,98235.75
2022-09-14T15:05:31.227Z,98235.91
2022-09-14T15:07:58.930Z,98233.06
2022-09-14T15:10:29.235Z,98223.91
2022-09-14T15:12:56.410Z,98226.16
2022-09-14T15:15:26.343Z,98226.75
2022-09-14T15:17:53.869Z,98229.00
2022-09-14T15:20:22.070Z,98224.19
2022-09-14T15:22:49.848Z,98241.94
2022-09-14T15:25:19.815Z,98232.50
2022-09-14T15:27:47.682Z,98232.03
2022-09-14T15:30:15.813Z,98235.38
2022-09-14T15:32:43.268Z,98230.59
2022-09-14T15:35:14.304Z,98235.22
2022-09-14T15:37:42.542Z,98232.03
2022-09-14T15:40:10.585Z,98228.84
2022-09-14T15:42:38.098Z,98231.03
2022-09-14T15:45:06.772Z,98233.28
2022-09-14T15:47:36.446Z,98225.75
2022-09-14T15:50:06.942Z,98226.09
2022-09-14T15:52:38.963Z,98215.84
2022-09-14T15:55:09.949Z,98216.47
2022-09-14T15:57:38.740Z,98212.50
2022-09-14T16:00:10.212Z,98213.94
2022-09-14T16:02:50.093Z,98211.84
2022-09-14T16:05:18.904Z,98209.78
2022-09-14T16:07:46.214Z,98211.19
2022-09-14T16:10:13.435Z,98218.06
2022-09-14T16:12:40.872Z,98213.25
2022-09-14T16:15:09.609Z,98211.16
2022-09-14T16:17:37.038Z,98208.28
2022-09-14T16:20:05.843Z,98209.72
2022-09-14T16:25:24.176Z,98208.25
2022-09-14T16:27:51.411Z,98206.19
2022-09-14T16:30:18.682Z,98202.97
2022-09-14T16:32:46.811Z,98207.44
2022-09-14T16:35:13.942Z,98211.25
2022-09-14T16:37:41.190Z,98206.44
2022-09-14T16:40:09.605Z,98208.69
2022-09-14T16:42:36.767Z,98210.88
2022-09-14T16:45:04.302Z,98199.06
2022-09-14T16:47:32.686Z,98191.25
2022-09-14T16:49:59.858Z,98204.31
2022-09-14T16:52:27.446Z,98194.41
2022-09-14T16:54:56.261Z,98200.16
2022-09-14T16:57:25.431Z,98197.75
2022-09-14T16:59:52.630Z,98197.25
2022-09-14T17:02:19.999Z,98197.38
2022-09-14T17:04:47.090Z,98193.38
2022-09-14T17:07:14.157Z,98190.19
2022-09-14T17:09:41.534Z,98191.59
2022-09-14T17:12:08.730Z,98205.97
2022-09-14T17:14:35.778Z,98209.28
2022-09-14T17:17:03.037Z,98202.59
2022-09-14T17:19:30.202Z,98205.63
2022-09-14T17:21:57.698Z,98205.94
2022-09-14T17:24:26.079Z,98199.53
2022-09-14T17:26:53.178Z,98208.78
2022-09-14T17:29:20.680Z,98212.59
2022-09-14T17:31:48.111Z,98202.38
2022-09-14T17:34:17.058Z,98200.78
2022-09-14T17:36:45.460Z,98209.19
2022-09-14T17:39:15.214Z,98195.16
2022-09-14T17:41:43.927Z,98200.91
2022-09-14T17:44:14.240Z,98203.13
2022-09-14T17:46:51.184Z,98200.44
2022-09-14T17:49:21.956Z,98201.03
2022-09-14T17:51:50.231Z,98204.34
2022-09-14T17:54:18.411Z,98195.75
2022-09-14T17:56:45.800Z,98199.06
2022-09-14T17:59:19.790Z,98196.69
2022-09-14T18:01:48.801Z,98194.25
2022-09-14T18:04:16.931Z,98185.16
2022-09-14T18:06:47.054Z,98183.53
2022-09-14T18:09:18.819Z,98178.44
2022-09-14T18:11:48.055Z,98175.53
2022-09-14T18:14:16.264Z,98172.03
2022-09-14T18:16:44.385Z,98159.56
2022-09-14T18:19:12.695Z,98148.53
2022-09-14T18:21:39.863Z,98152.38
2022-09-14T18:24:07.540Z,98161.94
2022-09-14T18:26:35.370Z,98159.03
2022-09-14T18:29:03.722Z,98180.69
2022-09-14T18:31:31.110Z,98188.31
2022-09-14T18:34:01.437Z,98181.31
2022-09-14T18:36:30.308Z,98188.16
2022-09-14T18:38:58.661Z,98178.75
2022-09-14T18:41:31.327Z,98175.50
2022-09-14T18:43:58.953Z,98178.22
2022-09-14T18:46:28.496Z,98183.16
2022-09-14T18:49:00.705Z,98177.25
2022-09-14T18:51:31.549Z,98167.50
2022-09-14T18:54:04.425Z,98153.47
2022-09-14T18:56:34.074Z,98150.28
2022-09-14T18:59:04.017Z,98149.78
2022-09-14T19:01:33.880Z,98154.72
2022-09-14T19:04:07.487Z,98148.81
2022-09-14T19:06:37.106Z,98140.69
2022-09-14T19:09:06.611Z,98144.00
2022-09-14T19:11:35.763Z,98147.81
2022-09-14T19:14:10.050Z,98146.53
2022-09-14T19:16:42.099Z,98147.66
2022-09-14T19:19:13.136Z,98146.34
2022-09-14T19:21:41.431Z,98133.91
2022-09-14T19:24:16.258Z,98150.75
2022-09-14T19:26:48.141Z,98142.97
2022-09-14T19:29:20.736Z,98128.94
2022-09-14T19:31:51.665Z,98121.09
2022-09-14T19:34:25.370Z,98127.63
2022-09-14T19:36:54.109Z,98128.25
2022-09-14T19:39:26.609Z,98144.81
2022-09-14T19:41:53.925Z,98140.81
2022-09-14T19:44:23.141Z,98137.56
2022-09-14T19:46:52.784Z,98139.78
2022-09-14T19:49:24.022Z,98139.78
2022-09-14T19:51:51.996Z,98132.31
2022-09-14T19:54:19.521Z,98123.38
2022-09-14T19:56:47.523Z,98126.38
2022-09-14T19:59:16.632Z,98138.59
2022-09-14T20:01:45.062Z,98136.22
2022-09-14T20:04:14.032Z,98133.03
2022-09-14T20:06:44.151Z,98135.22
2022-09-14T20:09:18.457Z,98136.31
2022-09-14T20:11:49.639Z,98128.81
2022-09-14T20:14:23.653Z,98127.22
2022-09-14T20:16:58.615Z,98134.81
2022-09-14T20:19:29.179Z,98133.25
2022-09-14T20:21:56.870Z,98125.41
2022-09-14T20:24:27.568Z,98119.78
2022-09-14T20:26:59.269Z,98113.56
2022-09-14T20:29:30.730Z,98108.78
2022-09-14T20:31:59.044Z,98113.41
2022-09-14T20:34:26.682Z,98107.19
2022-09-14T20:36:54.827Z,98102.38
2022-09-14T20:39:23.995Z,98117.78
2022-09-14T20:41:51.738Z,98116.22
2022-09-14T20:44:23.074Z,98116.81
2022-09-14T20:46:51.803Z,98112.50
2022-09-14T20:49:23.841Z,98117.41
2022-09-14T20:51:54.890Z,98115.84
2022-09-14T20:54:23.201Z,98112.59
2022-09-14T20:56:50.593Z,98105.63
2022-09-14T20:59:19.642Z,98109.41
2022-09-14T21:01:53.550Z,98105.13
2022-09-14T21:04:25.425Z,98107.03
2022-09-14T21:06:56.075Z,98104.59
2022-09-14T21:09:25.910Z,98104.09
2022-09-14T21:11:54.007Z,98101.41
2022-09-14T21:14:21.959Z,98091.19
2022-09-14T21:16:55.303Z,98085.78
2022-09-14T21:19:29.525Z,98083.38
2022-09-14T21:21:58.249Z,98079.88
2022-09-14T21:24:25.622Z,98077.78
2022-09-14T21:26:52.808Z,98077.78
2022-09-14T21:29:23.910Z,98061.38
2022-09-14T21:31:52.498Z,98074.56
2022-09-14T21:34:19.735Z,98057.38
2022-09-14T21:36:51.231Z,98058.19
2022-09-14T21:39:23.784Z,98054.19
2022-09-14T21:41:58.715Z,98052.56
2022-09-14T21:44:32.802Z,98053.16
2022-09-14T21:47:01.502Z,98043.47
2022-09-14T21:49:29.932Z,98046.19
2022-09-14T21:51:57.301Z,98053.78
2022-09-14T21:54:24.776Z,98049.16
2022-09-14T21:56:53.795Z,98041.38
2022-09-14T21:59:22.888Z,98038.19
2022-09-14T22:01:50.618Z,98036.56
2022-09-14T22:04:22.354Z,98036.56
2022-09-14T22:06:51.424Z,98040.38
2022-09-14T22:09:22.346Z,98031.75
2022-09-14T22:11:49.508Z,98031.75
2022-09-14T22:14:26.368Z,98030.16
2022-09-14T22:16:54.695Z,98030.78
2022-09-14T22:19:30.049Z,98017.25
2022-09-14T22:21:58.223Z,98012.16
2022-09-14T22:24:38.092Z,98011.34
2022-09-14T22:27:10.929Z,98013.56
2022-09-14T22:29:40.917Z,98015.16
2022-09-14T22:32:11.854Z,98023.56
2022-09-14T22:34:40.798Z,98014.97
2022-09-14T22:37:07.865Z,98024.16
2022-09-14T22:39:35.068Z,98027.19
2022-09-14T22:42:02.470Z,98015.56
2022-09-14T22:44:29.678Z,98013.19
2022-09-14T22:46:57.088Z,98001.25
2022-09-14T22:49:24.296Z,98010.75
2022-09-14T22:51:51.234Z,98006.47
2022-09-14T22:54:18.625Z,98005.66
2022-09-14T22:56:45.645Z,98014.88
2022-09-14T22:59:13.003Z,98006.75
2022-09-14T23:01:42.020Z,97981.34
2022-09-14T23:04:12.884Z,97977.34
2022-09-14T23:06:44.484Z,97980.38
2022-09-14T23:09:17.093Z,97988.47
2022-09-14T23:11:45.582Z,97991.19
2022-09-14T23:14:15.470Z,97985.78
2022-09-14T23:16:45.067Z,97978.75
2022-09-14T23:19:16.845Z,97971.75
2022-09-14T23:21:45.119Z,97965.56
2022-09-14T23:24:12.868Z,97969.34
2022-09-14T23:26:40.658Z,97962.34
2022-09-14T23:29:14.928Z,97960.44
2022-09-14T23:31:41.942Z,97954.56
2022-09-14T23:34:09.466Z,97961.84
2022-09-14T23:36:36.664Z,97964.88
2022-09-14T23:39:04.023Z,97970.28
2022-09-14T23:41:31.746Z,97974.56
2022-09-14T23:43:58.816Z,97977.25
2022-09-14T23:46:26.390Z,97965.97
2022-09-14T23:48:53.782Z,97967.56
2022-09-14T23:51:20.917Z,97961.66
2022-09-14T23:53:48.450Z,97957.84
2022-09-14T23:56:15.813Z,97958.97
2022-09-14T23:58:43.517Z,97957.03
